Time;durP1;ratioP1;P1;durP2;ratioP2;P2;SDS_P1;SDS_P2;PMS_P1;PMS_P2;Temp;Humidity;BMP_temperature;BMP_pressure;BME280_temperature;BME280_humidity;BME280_pressure;Samples;Min_cycle;Max_cycle;Signal;HPM_P1;HPM_P2
2022/09/22 00:01:40;;;;;;;14.35;6.78;;;;;;;15.42;37.79;99523.88;5044874;28;20564;-82
2022/09/22 00:04:11;;;;;;;23.00;6.68;;;;;;;15.37;37.86;99503.75;5078966;28;20040;-81
2022/09/22 00:06:46;;;;;;;13.65;7.13;;;;;;;15.41;37.88;99518.63;5061482;28;20052;-82
2022/09/22 00:09:14;;;;;;;13.43;7.15;;;;;;;15.32;37.79;99512.28;5079360;28;20045;-82
2022/09/22 00:11:43;;;;;;;23.42;7.65;;;;;;;15.37;38.27;99522.59;5079544;28;20093;-80
2022/09/22 00:14:23;;;;;;;21.83;7.83;;;;;;;15.36;38.04;99520.91;5063212;28;20504;-79
2022/09/22 00:16:57;;;;;;;18.65;7.70;;;;;;;15.34;38.77;99509.44;5045260;28;20045;-79
2022/09/22 00:19:26;;;;;;;29.70;8.63;;;;;;;15.32;38.75;99514.13;5058709;28;20040;-80
2022/09/22 00:21:53;;;;;;;23.60;8.68;;;;;;;15.28;38.98;99510.88;5056308;28;20052;-78
2022/09/22 00:24:21;;;;;;;22.95;8.27;;;;;;;15.26;39.33;99510.19;5072745;28;20475;-79
2022/09/22 00:26:48;;;;;;;17.00;7.97;;;;;;;15.18;39.29;99502.84;5073162;28;20036;-78
2022/09/22 00:29:15;;;;;;;18.80;8.38;;;;;;;15.14;39.44;99504.13;5072777;28;20052;-75
2022/09/22 00:31:42;;;;;;;20.05;9.43;;;;;;;15.09;39.42;99498.34;5039298;28;20044;-75
2022/09/22 00:34:18;;;;;;;23.15;9.07;;;;;;;15.12;39.73;99514.22;5039152;28;20052;-76
2022/09/22 00:36:44;;;;;;;20.15;8.85;;;;;;;15.09;39.50;99519.06;5072464;28;20071;-75
2022/09/22 00:39:11;;;;;;;21.52;9.38;;;;;;;15.03;39.84;99509.72;5073610;28;20484;-76
2022/09/22 00:41:40;;;;;;;13.90;8.48;;;;;;;14.93;40.24;99500.81;5073556;28;20102;-76
2022/09/22 00:44:30;;;;;;;21.13;8.45;;;;;;;14.95;40.07;99514.97;5038927;28;20062;-76
2022/09/22 00:47:05;;;;;;;22.98;8.48;;;;;;;14.90;40.72;99515.44;5039165;28;20040;-77
2022/09/22 00:50:06;;;;;;;19.67;9.63;;;;;;;14.87;40.51;99515.72;5072222;28;20048;-77
2022/09/22 00:52:42;;;;;;;26.58;10.55;;;;;;;14.74;40.95;99502.59;5052097;28;20117;-76
2022/09/22 00:55:14;;;;;;;22.70;10.05;;;;;;;14.74;41.46;99516.03;5072034;28;20114;-76
2022/09/22 00:57:42;;;;;;;30.23;10.48;;;;;;;14.72;41.29;99517.16;5039203;28;20033;-76
2022/09/22 01:00:10;;;;;;;22.80;10.20;;;;;;;14.69;41.58;99517.44;5072128;28;20051;-75
2022/09/22 01:02:36;;;;;;;25.52;10.68;;;;;;;14.66;41.75;99517.72;5071652;28;20326;-76
2022/09/22 01:05:03;;;;;;;20.42;10.52;;;;;;;14.63;42.21;99523.41;5072903;28;20044;-77
2022/09/22 01:07:30;;;;;;;21.73;10.95;;;;;;;14.53;42.24;99507.28;5055547;28;20041;-76
2022/09/22 01:09:56;;;;;;;27.15;10.80;;;;;;;14.56;42.69;99523.16;5055406;28;20093;-78
2022/09/22 01:12:24;;;;;;;34.75;11.55;;;;;;;14.54;42.90;99517.06;5073162;28;20059;-77
2022/09/22 01:15:11;;;;;;;34.47;10.68;;;;;;;14.51;42.96;99514.63;5071745;28;20051;-76
2022/09/22 01:17:43;;;;;;;22.35;10.00;;;;;;;14.53;42.97;99528.81;5073311;28;20048;-76
2022/09/22 01:20:49;;;;;;;26.77;10.07;;;;;;;14.52;42.71;99532.50;5055056;28;20044;-78
2022/09/22 01:23:40;;;;;;;21.55;10.07;;;;;;;14.44;42.83;99517.03;5054570;28;20569;-77
2022/09/22 01:26:26;;;;;;;24.23;10.55;;;;;;;14.46;43.13;99520.44;5055081;28;20049;-78
2022/09/22 01:29:29;;;;;;;24.67;10.57;;;;;;;14.46;43.32;99528.50;5038736;28;20044;-77
2022/09/22 01:32:12;;;;;;;18.40;9.68;;;;;;;14.44;43.18;99521.56;5038108;28;20403;-77
2022/09/22 01:34:58;;;;;;;24.83;10.80;;;;;;;14.43;43.24;99522.56;5054785;28;20055;-77
2022/09/22 01:37:30;;;;;;;24.50;10.25;;;;;;;14.34;43.10;99514.34;5071967;28;20082;-77
2022/09/22 01:40:19;;;;;;;20.15;10.00;;;;;;;14.41;43.18;99530.78;5071394;28;20055;-77
2022/09/22 01:42:51;;;;;;;27.58;10.10;;;;;;;14.42;43.04;99526.25;5073126;28;20087;-81
2022/09/22 01:45:25;;;;;;;19.88;10.95;;;;;;;14.45;43.13;99526.81;5054837;28;20503;-81
2022/09/22 01:48:17;;;;;;;23.48;10.88;;;;;;;14.47;43.36;99532.03;5072201;28;20044;-81
2022/09/22 01:51:03;;;;;;;20.88;9.60;;;;;;;14.48;43.00;99531.91;5073382;28;20530;-81
2022/09/22 01:53:35;;;;;;;26.77;10.45;;;;;;;14.51;43.26;99537.00;5038263;28;20569;-80
2022/09/22 01:56:06;;;;;;;22.50;9.77;;;;;;;14.55;43.42;99533.06;5071974;28;20068;-80
2022/09/22 01:58:38;;;;;;;21.80;10.45;;;;;;;14.56;43.21;99533.91;5038576;28;20037;-76
2022/09/22 02:01:06;;;;;;;25.02;10.43;;;;;;;14.62;43.41;99544.06;5054532;28;20044;-76
2022/09/22 02:03:49;;;;;;;24.77;10.02;;;;;;;14.68;43.45;99542.66;5037892;28;20399;-77
2022/09/22 02:06:39;;;;;;;29.40;11.60;;;;;;;14.71;43.92;99539.69;5054544;28;20064;-74
2022/09/22 02:09:08;;;;;;;25.05;10.60;;;;;;;14.73;44.20;99541.22;5054459;28;20040;-76
2022/09/22 02:11:34;;;;;;;31.95;11.52;;;;;;;14.77;44.57;99548.00;5054997;28;20063;-76
2022/09/22 02:14:02;;;;;;;36.70;11.35;;;;;;;14.74;44.44;99532.19;5054262;28;20557;-77
2022/09/22 02:16:30;;;;;;;48.75;10.52;;;;;;;14.86;44.55;99550.84;5058343;28;20067;-76
2022/09/22 02:19:00;;;;;;;37.45;11.60;;;;;;;14.91;44.41;99551.25;5076002;28;20123;-82
2022/09/22 02:21:27;;;;;;;36.45;10.88;;;;;;;14.91;44.37;99548.56;5058313;28;20048;-77
2022/09/22 02:23:54;;;;;;;43.22;11.85;;;;;;;15.02;43.96;99551.09;5041465;28;20052;-79
2022/09/22 02:26:24;;;;;;;44.78;9.60;;;;;;;15.06;44.00;99556.03;5058121;28;20090;-77
2022/09/22 02:28:59;;;;;;;41.67;11.02;;;;;;;15.12;44.25;99549.22;5074527;28;20040;-76
2022/09/22 02:31:28;;;;;;;37.40;10.13;;;;;;;15.16;44.38;99547.09;5057780;28;20044;-77
2022/09/22 02:33:54;;;;;;;25.73;9.80;;;;;;;15.16;43.80;99531.78;5040888;28;20040;-77
2022/09/22 02:36:36;;;;;;;25.15;9.88;;;;;;;15.23;43.16;99554.44;5074416;28;20059;-77
2022/09/22 02:39:23;;;;;;;27.05;10.30;;;;;;;15.27;43.34;99550.44;5075248;28;20048;-76
2022/09/22 02:42:10;;;;;;;25.38;9.48;;;;;;;15.27;43.22;99539.66;5057941;28;20048;-76
2022/09/22 02:45:13;;;;;;;24.80;9.85;;;;;;;15.30;43.61;99560.91;5073991;28;20506;-77
2022/09/22 02:47:50;;;;;;;33.45;10.25;;;;;;;15.30;43.37;99557.34;5074504;28;20549;-77
2022/09/22 02:50:19;;;;;;;32.60;10.73;;;;;;;15.33;43.24;99558.91;5069391;28;20044;-77
2022/09/22 02:52:44;;;;;;;;;;;;;;;15.38;42.88;99567.38;5061463;28;20047;-82
2022/09/22 02:55:12;;;;;;;30.83;10.35;;;;;;;15.33;43.04;99554.38;5066369;28;19932;-78
2022/09/22 02:57:38;;;;;;;21.77;10.02;;;;;;;15.38;42.63;99551.22;5061497;28;20063;-79
2022/09/22 03:00:05;;;;;;;28.75;10.38;;;;;;;15.40;42.30;99541.16;5077538;28;20451;-78
2022/09/22 03:02:31;;;;;;;23.23;9.68;;;;;;;15.43;42.49;99549.81;5076252;28;20068;-77
